ADDS METAR Data INFO
IDs: Format: Raw Decoded Include TAF

Data at: 0933 UTC 17 Oct 2017

KANE 170915Z AUTO 20003KT 10SM CLR 08/05 A2997 RMK AO2
KANE 170854Z AUTO 20004KT 10SM CLR 08/05 A2996 RMK AO2
KANE 170834Z AUTO 19004KT 10SM CLR 08/04 A2996 RMK AO2
KANE 170815Z AUTO 20003KT 10SM CLR 08/04 A2996 RMK AO2
KANE 170754Z AUTO 20003KT 10SM CLR 09/04 A2996 RMK AO2
KANE 170734Z AUTO 20003KT 10SM CLR 09/04 A2996 RMK AO2
KANE 170715Z AUTO 20005KT 10SM CLR 09/05 A2996 RMK AO2
KANE 170654Z AUTO 19004KT 10SM CLR 09/04 A2996 RMK AO2
KANE 170634Z AUTO 20004KT 10SM CLR 09/04 A2996 RMK AO2
KANE 170614Z AUTO 21004KT 10SM CLR 12/04 A2995 RMK AO2
KANE 170554Z AUTO 21005KT 10SM CLR 13/04 A2995 RMK AO2
KANE 170535Z AUTO 21006KT 10SM CLR 13/04 A2995 RMK AO2
KANE 170514Z AUTO 21006KT 10SM CLR 13/04 A2995 RMK AO2
KANE 170454Z AUTO 22006KT 10SM CLR 14/04 A2995 RMK AO2
KANE 170435Z AUTO 21007KT 10SM CLR 14/04 A2995 RMK AO2
KANE 170414Z AUTO 21008KT 10SM CLR 14/04 A2995 RMK AO2
KANE 170354Z AUTO 20008KT 10SM CLR 14/03 A2995 RMK AO2
KANE 170335Z AUTO 20006KT 10SM CLR 14/03 A2995 RMK AO2
KANE 170314Z AUTO 20007KT 10SM CLR 14/03 A2995 RMK AO2
KANE 170254Z AUTO 20007KT 10SM CLR 15/03 A2995 RMK AO2
KANE 170235Z AUTO 20008KT 10SM CLR 14/03 A2994 RMK AO2
KANE 170214Z AUTO 19008KT 10SM CLR 14/03 A2994 RMK AO2
KANE 170145Z 18005KT 10SM SCT250 12/04 A2995
KANE 170045Z 17005KT 10SM SCT250 12/04 A2997
KANE 162345Z 18005KT 10SM SCT250 14/03 A2999
KANE 162245Z 20010KT 10SM SCT250 18/03 A2999
KANE 162145Z 20010G15KT 10SM SCT250 19/03 A3002
KANE 162050Z 20012G17KT 10SM SKC 19/02 A3006
KANE 161950Z 21011G14KT 10SM SKC 18/02 A3008
KANE 161850Z 20009KT 10SM SKC 17/03 A3012
KANE 161750Z 22008G14KT 10SM SKC 16/02 A3016
KANE 161650Z 22008KT 10SM SKC 14/03 A3019
KANE 161545Z 21004KT 10SM FEW250 11/04 A3021
KANE 161455Z 21004KT 10SM SKC 09/04 A3021
KANE 161350Z 21005KT 10SM SKC 06/06 A3021
KANE 161251Z 21003KT 10SM SKC 04/04 A3022
KANE 161150Z 18004KT 10SM FEW250 03/03 A3020
KANE 161054Z AUTO 20004KT 10SM CLR 03/03 A3022 RMK AO2
KANE 161035Z AUTO 17003KT 10SM CLR 04/04 A3020 RMK AO2
KANE 161014Z AUTO 00000KT 10SM CLR 03/03 A3020 RMK AO2
KANE 160954Z AUTO 00000KT 10SM CLR 04/04 A3020 RMK AO2
KANE 160935Z AUTO 21003KT 10SM CLR 06/04 A3021 RMK AO2
KANE 160914Z AUTO 21004KT 10SM CLR 06/06 A3021 RMK AO2
KANE 160854Z AUTO 19003KT 10SM CLR 05/05 A3020 RMK AO2
KANE 160835Z AUTO 00000KT 10SM SCT065 04/04 A3021 RMK AO2
KANE 160814Z AUTO 17003KT 10SM BKN065 04/04 A3021 RMK AO2
KANE 160754Z AUTO 00000KT 10SM BKN065 04/04 A3021 RMK AO2
KANE 160735Z AUTO 00000KT 10SM CLR 03/03 A3021 RMK AO2
KANE 160714Z AUTO 00000KT 10SM CLR 04/04 A3021 RMK AO2
KANE 160654Z AUTO 00000KT 10SM CLR 04/04 A3020 RMK AO2
KANE 160635Z AUTO 00000KT 10SM CLR 05/04 A3020 RMK AO2
KANE 160614Z AUTO 00000KT 10SM CLR 04/04 A3020 RMK AO2
KANE 160555Z AUTO 00000KT 10SM CLR 04/04 A3020 RMK AO2
KANE 160534Z AUTO 00000KT 10SM CLR 06/05 A3019 RMK AO2
KANE 160514Z AUTO 00000KT 10SM CLR 06/05 A3020 RMK AO2
KANE 160455Z AUTO 23003KT 10SM SCT100 06/04 A3020 RMK AO2
KANE 160434Z AUTO 00000KT 10SM BKN100 07/04 A3020 RMK AO2
KANE 160414Z AUTO 23003KT 10SM OVC100 08/04 A3020 RMK AO2
KANE 160355Z AUTO 23003KT 10SM OVC100 07/05 A3020 RMK AO2
KANE 160334Z AUTO 20003KT 10SM OVC100 07/06 A3020 RMK AO2
KANE 160314Z AUTO 18003KT 10SM OVC100 07/05 A3020 RMK AO2
KANE 160254Z AUTO 00000KT 10SM OVC100 07/04 A3020 RMK AO2
KANE 160234Z AUTO 00000KT 10SM BKN100 07/05 A3020 RMK AO2
KANE 160215Z AUTO 00000KT 10SM OVC100 07/05 A3019 RMK AO2
KANE 160145Z 00000KT 10SM FEW050 BKN110 08/045 A3019
KANE 160045Z 00000KT 10SM BKN050 OVC100 08/04 A3018
KANE 152345Z 00000KT 10SM BKN065 OVC080 09/04 A3018
KANE 152245Z 29005KT 10SM BKN080 OVC090 10/02 A3018
KANE 152145Z 29011G18KT 10SM BKN050 OVC080 11/002 A3018